sensor_id;sensor_type;location;lat;lon;timestamp;P1;durP1;ratioP1;P2;durP2;ratioP2
42662;SDS011;44330;51.360;6.686;2022-09-03T00:02:21;2.63;;;1.40;;
42662;SDS011;44330;51.360;6.686;2022-09-03T00:05:08;4.82;;;1.20;;
42662;SDS011;44330;51.360;6.686;2022-09-03T00:10:30;5.25;;;0.93;;
42662;SDS011;44330;51.360;6.686;2022-09-03T00:13:05;5.13;;;0.88;;
42662;SDS011;44330;51.360;6.686;2022-09-03T00:15:33;3.55;;;1.20;;
42662;SDS011;44330;51.360;6.686;2022-09-03T00:23:08;2.95;;;1.08;;
42662;SDS011;44330;51.360;6.686;2022-09-03T00:26:01;1.95;;;0.95;;
42662;SDS011;44330;51.360;6.686;2022-09-03T00:31:19;3.72;;;1.13;;
42662;SDS011;44330;51.360;6.686;2022-09-03T00:33:51;4.38;;;1.10;;
42662;SDS011;44330;51.360;6.686;2022-09-03T00:36:24;3.55;;;1.00;;
42662;SDS011;44330;51.360;6.686;2022-09-03T00:38:57;3.38;;;0.90;;
42662;SDS011;44330;51.360;6.686;2022-09-03T00:41:36;2.30;;;1.40;;
42662;SDS011;44330;51.360;6.686;2022-09-03T00:46:37;5.28;;;1.00;;
42662;SDS011;44330;51.360;6.686;2022-09-03T00:57:29;1.02;;;0.90;;
42662;SDS011;44330;51.360;6.686;2022-09-03T01:00:20;4.60;;;1.13;;
42662;SDS011;44330;51.360;6.686;2022-09-03T01:10:59;3.08;;;0.70;;
42662;SDS011;44330;51.360;6.686;2022-09-03T01:13:42;6.65;;;1.27;;
42662;SDS011;44330;51.360;6.686;2022-09-03T01:19:19;4.10;;;0.88;;
42662;SDS011;44330;51.360;6.686;2022-09-03T01:25:37;4.68;;;0.80;;
42662;SDS011;44330;51.360;6.686;2022-09-03T01:30:48;2.55;;;1.15;;
42662;SDS011;44330;51.360;6.686;2022-09-03T01:33:39;4.05;;;0.88;;
42662;SDS011;44330;51.360;6.686;2022-09-03T01:36:10;1.05;;;0.73;;
42662;SDS011;44330;51.360;6.686;2022-09-03T01:38:55;2.00;;;1.00;;
42662;SDS011;44330;51.360;6.686;2022-09-03T01:50:11;3.08;;;1.33;;
42662;SDS011;44330;51.360;6.686;2022-09-03T01:52:44;2.25;;;0.65;;
42662;SDS011;44330;51.360;6.686;2022-09-03T01:55:28;7.07;;;0.80;;
42662;SDS011;44330;51.360;6.686;2022-09-03T01:58:00;4.22;;;1.02;;
42662;SDS011;44330;51.360;6.686;2022-09-03T02:00:33;2.00;;;0.85;;
42662;SDS011;44330;51.360;6.686;2022-09-03T02:03:04;3.30;;;0.68;;
42662;SDS011;44330;51.360;6.686;2022-09-03T02:05:31;3.05;;;0.88;;
42662;SDS011;44330;51.360;6.686;2022-09-03T02:07:59;2.72;;;0.82;;
42662;SDS011;44330;51.360;6.686;2022-09-03T02:10:37;0.93;;;0.70;;
42662;SDS011;44330;51.360;6.686;2022-09-03T02:13:16;2.83;;;0.70;;
42662;SDS011;44330;51.360;6.686;2022-09-03T02:15:47;3.88;;;0.90;;
42662;SDS011;44330;51.360;6.686;2022-09-03T02:18:15;6.60;;;0.90;;
42662;SDS011;44330;51.360;6.686;2022-09-03T02:23:29;1.73;;;0.80;;
42662;SDS011;44330;51.360;6.686;2022-09-03T02:25:56;7.75;;;1.20;;
42662;SDS011;44330;51.360;6.686;2022-09-03T02:28:29;4.60;;;0.80;;
42662;SDS011;44330;51.360;6.686;2022-09-03T02:30:56;1.70;;;0.95;;
42662;SDS011;44330;51.360;6.686;2022-09-03T02:33:22;1.15;;;0.73;;
42662;SDS011;44330;51.360;6.686;2022-09-03T02:35:48;2.25;;;0.70;;
42662;SDS011;44330;51.360;6.686;2022-09-03T02:38:18;3.50;;;1.00;;
42662;SDS011;44330;51.360;6.686;2022-09-03T02:40:45;1.33;;;0.93;;
42662;SDS011;44330;51.360;6.686;2022-09-03T02:43:13;1.20;;;0.75;;
42662;SDS011;44330;51.360;6.686;2022-09-03T02:45:46;6.85;;;0.75;;
42662;SDS011;44330;51.360;6.686;2022-09-03T02:48:16;5.22;;;1.17;;
42662;SDS011;44330;51.360;6.686;2022-09-03T02:50:46;1.23;;;1.00;;
42662;SDS011;44330;51.360;6.686;2022-09-03T02:53:12;2.38;;;0.95;;
42662;SDS011;44330;51.360;6.686;2022-09-03T02:55:37;2.13;;;1.00;;
42662;SDS011;44330;51.360;6.686;2022-09-03T02:58:03;2.47;;;1.10;;
42662;SDS011;44330;51.360;6.686;2022-09-03T03:00:30;1.92;;;0.98;;
42662;SDS011;44330;51.360;6.686;2022-09-03T03:02:57;2.47;;;1.00;;
42662;SDS011;44330;51.360;6.686;2022-09-03T03:05:27;1.50;;;0.77;;
42662;SDS011;44330;51.360;6.686;2022-09-03T03:08:09;1.70;;;0.70;;
42662;SDS011;44330;51.360;6.686;2022-09-03T03:10:36;3.38;;;1.02;;
42662;SDS011;44330;51.360;6.686;2022-09-03T03:13:02;1.40;;;0.90;;
42662;SDS011;44330;51.360;6.686;2022-09-03T03:15:28;3.63;;;0.80;;
42662;SDS011;44330;51.360;6.686;2022-09-03T03:17:56;3.95;;;0.88;;
42662;SDS011;44330;51.360;6.686;2022-09-03T03:20:22;5.72;;;0.82;;
42662;SDS011;44330;51.360;6.686;2022-09-03T03:22:48;1.33;;;0.73;;
42662;SDS011;44330;51.360;6.686;2022-09-03T03:25:14;3.22;;;1.00;;
42662;SDS011;44330;51.360;6.686;2022-09-03T03:27:40;2.50;;;1.00;;
42662;SDS011;44330;51.360;6.686;2022-09-03T03:30:07;5.22;;;0.85;;
42662;SDS011;44330;51.360;6.686;2022-09-03T03:32:36;5.20;;;1.40;;
42662;SDS011;44330;51.360;6.686;2022-09-03T03:35:03;3.88;;;1.02;;
42662;SDS011;44330;51.360;6.686;2022-09-03T03:37:30;1.95;;;1.08;;
42662;SDS011;44330;51.360;6.686;2022-09-03T03:39:56;3.80;;;1.35;;
42662;SDS011;44330;51.360;6.686;2022-09-03T03:42:22;2.90;;;0.95;;
42662;SDS011;44330;51.360;6.686;2022-09-03T03:44:47;1.50;;;0.70;;
42662;SDS011;44330;51.360;6.686;2022-09-03T03:47:13;3.80;;;0.95;;
42662;SDS011;44330;51.360;6.686;2022-09-03T03:49:40;5.82;;;0.95;;
42662;SDS011;44330;51.360;6.686;2022-09-03T03:52:06;5.25;;;1.55;;
42662;SDS011;44330;51.360;6.686;2022-09-03T03:54:32;3.65;;;1.00;;
42662;SDS011;44330;51.360;6.686;2022-09-03T03:56:58;5.47;;;0.90;;
42662;SDS011;44330;51.360;6.686;2022-09-03T03:59:24;3.03;;;1.00;;
42662;SDS011;44330;51.360;6.686;2022-09-03T04:01:49;3.20;;;1.10;;
42662;SDS011;44330;51.360;6.686;2022-09-03T04:04:15;1.13;;;0.80;;
42662;SDS011;44330;51.360;6.686;2022-09-03T04:06:41;1.60;;;0.80;;
42662;SDS011;44330;51.360;6.686;2022-09-03T04:09:07;3.63;;;0.77;;
42662;SDS011;44330;51.360;6.686;2022-09-03T04:11:32;2.40;;;1.20;;
42662;SDS011;44330;51.360;6.686;2022-09-03T04:13:58;4.35;;;1.15;;
42662;SDS011;44330;51.360;6.686;2022-09-03T04:16:24;1.33;;;0.75;;
42662;SDS011;44330;51.360;6.686;2022-09-03T04:18:51;3.13;;;1.02;;
42662;SDS011;44330;51.360;6.686;2022-09-03T04:21:22;4.00;;;0.80;;
42662;SDS011;44330;51.360;6.686;2022-09-03T04:23:49;2.75;;;1.17;;
42662;SDS011;44330;51.360;6.686;2022-09-03T04:26:16;3.78;;;1.02;;
42662;SDS011;44330;51.360;6.686;2022-09-03T04:28:44;2.45;;;0.80;;
42662;SDS011;44330;51.360;6.686;2022-09-03T04:31:10;2.90;;;1.08;;
42662;SDS011;44330;51.360;6.686;2022-09-03T04:33:37;4.50;;;1.13;;
42662;SDS011;44330;51.360;6.686;2022-09-03T04:36:04;9.35;;;1.00;;
42662;SDS011;44330;51.360;6.686;2022-09-03T04:38:39;3.53;;;1.20;;
42662;SDS011;44330;51.360;6.686;2022-09-03T04:41:06;8.80;;;1.23;;
42662;SDS011;44330;51.360;6.686;2022-09-03T04:43:32;6.13;;;1.20;;
42662;SDS011;44330;51.360;6.686;2022-09-03T04:45:59;6.78;;;1.10;;
42662;SDS011;44330;51.360;6.686;2022-09-03T04:48:27;8.43;;;1.10;;
42662;SDS011;44330;51.360;6.686;2022-09-03T04:50:54;2.53;;;1.05;;
42662;SDS011;44330;51.360;6.686;2022-09-03T04:53:29;5.75;;;1.73;;
42662;SDS011;44330;51.360;6.686;2022-09-03T04:55:54;3.28;;;1.13;;
42662;SDS011;44330;51.360;6.686;2022-09-03T04:58:20;8.73;;;1.30;;
42662;SDS011;44330;51.360;6.686;2022-09-03T05:00:45;4.90;;;1.58;;
42662;SDS011;44330;51.360;6.686;2022-09-03T05:03:11;5.95;;;1.15;;
42662;SDS011;44330;51.360;6.686;2022-09-03T05:05:37;4.07;;;1.48;;
42662;SDS011;44330;51.360;6.686;2022-09-03T05:08:02;4.40;;;1.02;;
42662;SDS011;44330;51.360;6.686;2022-09-03T05:10:28;2.95;;;1.23;;
42662;SDS011;44330;51.360;6.686;2022-09-03T05:13:01;9.65;;;1.90;;
42662;SDS011;44330;51.360;6.686;2022-09-03T05:15:29;7.55;;;1.60;;
42662;SDS011;44330;51.360;6.686;2022-09-03T05:17:57;7.43;;;1.55;;
42662;SDS011;44330;51.360;6.686;2022-09-03T05:20:23;6.57;;;1.27;;
42662;SDS011;44330;51.360;6.686;2022-09-03T05:22:50;3.85;;;1.08;;
42662;SDS011;44330;51.360;6.686;2022-09-03T05:25:16;1.92;;;1.02;;
42662;SDS011;44330;51.360;6.686;2022-09-03T05:27:41;4.68;;;1.02;;
42662;SDS011;44330;51.360;6.686;2022-09-03T05:30:07;4.03;;;1.08;;
42662;SDS011;44330;51.360;6.686;2022-09-03T05:32:33;5.53;;;1.45;;
42662;SDS011;44330;51.360;6.686;2022-09-03T05:34:59;1.77;;;1.00;;
42662;SDS011;44330;51.360;6.686;2022-09-03T05:37:24;3.97;;;1.15;;
42662;SDS011;44330;51.360;6.686;2022-09-03T05:39:50;3.92;;;1.20;;
42662;SDS011;44330;51.360;6.686;2022-09-03T05:42:15;1.40;;;0.82;;
42662;SDS011;44330;51.360;6.686;2022-09-03T05:44:41;5.40;;;1.08;;
42662;SDS011;44330;51.360;6.686;2022-09-03T05:47:08;3.03;;;1.02;;
42662;SDS011;44330;51.360;6.686;2022-09-03T05:49:33;4.55;;;1.30;;
42662;SDS011;44330;51.360;6.686;2022-09-03T05:51:59;7.05;;;1.55;;
42662;SDS011;44330;51.360;6.686;2022-09-03T05:54:24;6.50;;;1.45;;
42662;SDS011;44330;51.360;6.686;2022-09-03T05:56:50;7.90;;;1.45;;
42662;SDS011;44330;51.360;6.686;2022-09-03T05:59:16;6.20;;;1.20;;
42662;SDS011;44330;51.360;6.686;2022-09-03T06:01:42;10.25;;;1.50;;
42662;SDS011;44330;51.360;6.686;2022-09-03T06:04:11;16.17;;;2.03;;
42662;SDS011;44330;51.360;6.686;2022-09-03T06:06:39;13.02;;;2.05;;
42662;SDS011;44330;51.360;6.686;2022-09-03T06:09:06;18.30;;;1.73;;
42662;SDS011;44330;51.360;6.686;2022-09-03T06:11:36;15.18;;;2.00;;
42662;SDS011;44330;51.360;6.686;2022-09-03T06:14:03;6.95;;;1.80;;
42662;SDS011;44330;51.360;6.686;2022-09-03T06:16:31;4.55;;;1.17;;
42662;SDS011;44330;51.360;6.686;2022-09-03T06:19:00;8.50;;;1.50;;
42662;SDS011;44330;51.360;6.686;2022-09-03T06:21:27;4.57;;;1.17;;
42662;SDS011;44330;51.360;6.686;2022-09-03T06:23:54;4.55;;;1.25;;
42662;SDS011;44330;51.360;6.686;2022-09-03T06:26:21;4.68;;;1.00;;
42662;SDS011;44330;51.360;6.686;2022-09-03T06:28:48;2.17;;;1.23;;
42662;SDS011;44330;51.360;6.686;2022-09-03T06:31:14;4.50;;;1.08;;
42662;SDS011;44330;51.360;6.686;2022-09-03T06:33:42;4.85;;;0.95;;
42662;SDS011;44330;51.360;6.686;2022-09-03T06:36:09;3.20;;;1.02;;
42662;SDS011;44330;51.360;6.686;2022-09-03T06:38:37;4.13;;;1.10;;
42662;SDS011;44330;51.360;6.686;2022-09-03T06:41:07;2.63;;;1.40;;
42662;SDS011;44330;51.360;6.686;2022-09-03T06:43:39;8.77;;;1.23;;
42662;SDS011;44330;51.360;6.686;2022-09-03T06:46:06;4.50;;;1.10;;
42662;SDS011;44330;51.360;6.686;2022-09-03T06:48:37;6.43;;;1.13;;
42662;SDS011;44330;51.360;6.686;2022-09-03T06:51:04;5.60;;;1.05;;
42662;SDS011;44330;51.360;6.686;2022-09-03T06:53:42;5.75;;;1.10;;
42662;SDS011;44330;51.360;6.686;2022-09-03T06:58:37;3.63;;;1.10;;
42662;SDS011;44330;51.360;6.686;2022-09-03T07:01:08;5.38;;;1.00;;
42662;SDS011;44330;51.360;6.686;2022-09-03T07:03:35;2.40;;;1.00;;
42662;SDS011;44330;51.360;6.686;2022-09-03T07:06:03;2.13;;;1.13;;
42662;SDS011;44330;51.360;6.686;2022-09-03T07:08:33;2.97;;;1.20;;
42662;SDS011;44330;51.360;6.686;2022-09-03T07:10:59;6.53;;;1.00;;
42662;SDS011;44330;51.360;6.686;2022-09-03T07:13:29;2.03;;;0.90;;
42662;SDS011;44330;51.360;6.686;2022-09-03T07:16:00;2.17;;;1.20;;
42662;SDS011;44330;51.360;6.686;2022-09-03T07:18:27;3.00;;;1.25;;
42662;SDS011;44330;51.360;6.686;2022-09-03T07:20:56;1.88;;;0.80;;
42662;SDS011;44330;51.360;6.686;2022-09-03T07:23:27;1.02;;;0.85;;
42662;SDS011;44330;51.360;6.686;2022-09-03T07:25:54;3.47;;;1.10;;
42662;SDS011;44330;51.360;6.686;2022-09-03T07:28:21;4.13;;;0.90;;
42662;SDS011;44330;51.360;6.686;2022-09-03T07:30:47;4.72;;;1.00;;
42662;SDS011;44330;51.360;6.686;2022-09-03T07:33:13;2.55;;;0.85;;
42662;SDS011;44330;51.360;6.686;2022-09-03T07:35:38;2.88;;;1.02;;
42662;SDS011;44330;51.360;6.686;2022-09-03T07:38:04;8.65;;;1.13;;
42662;SDS011;44330;51.360;6.686;2022-09-03T07:40:30;1.35;;;0.80;;
42662;SDS011;44330;51.360;6.686;2022-09-03T07:42:57;2.45;;;0.90;;
42662;SDS011;44330;51.360;6.686;2022-09-03T07:45:28;4.70;;;0.90;;
42662;SDS011;44330;51.360;6.686;2022-09-03T07:47:57;1.45;;;0.80;;
42662;SDS011;44330;51.360;6.686;2022-09-03T07:50:24;3.30;;;1.00;;
42662;SDS011;44330;51.360;6.686;2022-09-03T07:52:55;1.95;;;1.05;;
42662;SDS011;44330;51.360;6.686;2022-09-03T07:55:22;1.60;;;0.75;;
42662;SDS011;44330;51.360;6.686;2022-09-03T07:57:47;3.38;;;1.10;;
42662;SDS011;44330;51.360;6.686;2022-09-03T08:00:13;1.98;;;1.00;;
42662;SDS011;44330;51.360;6.686;2022-09-03T08:02:39;3.55;;;0.85;;
42662;SDS011;44330;51.360;6.686;2022-09-03T08:05:05;4.40;;;1.00;;
42662;SDS011;44330;51.360;6.686;2022-09-03T08:07:31;3.25;;;1.02;;
42662;SDS011;44330;51.360;6.686;2022-09-03T08:09:57;1.50;;;1.00;;
42662;SDS011;44330;51.360;6.686;2022-09-03T08:12:23;1.20;;;0.77;;
42662;SDS011;44330;51.360;6.686;2022-09-03T08:14:49;2.42;;;1.00;;
42662;SDS011;44330;51.360;6.686;2022-09-03T08:17:15;3.65;;;0.85;;
42662;SDS011;44330;51.360;6.686;2022-09-03T08:19:40;1.42;;;0.70;;
42662;SDS011;44330;51.360;6.686;2022-09-03T08:22:07;2.22;;;1.10;;
42662;SDS011;44330;51.360;6.686;2022-09-03T08:24:34;1.00;;;0.90;;
42662;SDS011;44330;51.360;6.686;2022-09-03T08:27:02;2.47;;;0.95;;
42662;SDS011;44330;51.360;6.686;2022-09-03T08:29:29;2.30;;;0.82;;
42662;SDS011;44330;51.360;6.686;2022-09-03T08:31:54;2.08;;;0.90;;
42662;SDS011;44330;51.360;6.686;2022-09-03T08:34:20;2.47;;;0.93;;
42662;SDS011;44330;51.360;6.686;2022-09-03T08:36:46;3.53;;;1.10;;
42662;SDS011;44330;51.360;6.686;2022-09-03T08:39:12;3.00;;;0.88;;
42662;SDS011;44330;51.360;6.686;2022-09-03T08:44:25;3.03;;;1.00;;
42662;SDS011;44330;51.360;6.686;2022-09-03T08:49:38;2.92;;;1.25;;
42662;SDS011;44330;51.360;6.686;2022-09-03T08:52:19;3.90;;;1.08;;
42662;SDS011;44330;51.360;6.686;2022-09-03T08:54:50;3.90;;;1.20;;
42662;SDS011;44330;51.360;6.686;2022-09-03T08:57:19;2.67;;;1.00;;
42662;SDS011;44330;51.360;6.686;2022-09-03T08:59:50;2.63;;;1.15;;
42662;SDS011;44330;51.360;6.686;2022-09-03T09:05:16;6.78;;;1.02;;
42662;SDS011;44330;51.360;6.686;2022-09-03T09:07:49;1.70;;;0.85;;
42662;SDS011;44330;51.360;6.686;2022-09-03T09:15:47;2.25;;;1.00;;
42662;SDS011;44330;51.360;6.686;2022-09-03T09:18:46;3.85;;;1.10;;
42662;SDS011;44330;51.360;6.686;2022-09-03T09:21:26;6.43;;;1.08;;
42662;SDS011;44330;51.360;6.686;2022-09-03T09:23:56;11.35;;;2.20;;
42662;SDS011;44330;51.360;6.686;2022-09-03T09:26:28;40.58;;;4.68;;
42662;SDS011;44330;51.360;6.686;2022-09-03T09:28:56;6.28;;;1.17;;
42662;SDS011;44330;51.360;6.686;2022-09-03T09:31:26;4.97;;;1.08;;
42662;SDS011;44330;51.360;6.686;2022-09-03T09:33:54;8.80;;;1.30;;
42662;SDS011;44330;51.360;6.686;2022-09-03T09:36:25;5.43;;;1.35;;
42662;SDS011;44330;51.360;6.686;2022-09-03T09:38:52;6.05;;;1.20;;
42662;SDS011;44330;51.360;6.686;2022-09-03T09:41:18;3.47;;;0.80;;
42662;SDS011;44330;51.360;6.686;2022-09-03T09:43:47;3.22;;;1.10;;
42662;SDS011;44330;51.360;6.686;2022-09-03T09:46:26;1.65;;;1.20;;
42662;SDS011;44330;51.360;6.686;2022-09-03T09:49:01;2.13;;;1.20;;
42662;SDS011;44330;51.360;6.686;2022-09-03T09:54:07;2.83;;;1.40;;
42662;SDS011;44330;51.360;6.686;2022-09-03T09:56:35;4.28;;;1.15;;
42662;SDS011;44330;51.360;6.686;2022-09-03T09:59:07;1.98;;;1.15;;
42662;SDS011;44330;51.360;6.686;2022-09-03T10:01:35;3.53;;;1.13;;
42662;SDS011;44330;51.360;6.686;2022-09-03T10:04:10;2.20;;;1.20;;
42662;SDS011;44330;51.360;6.686;2022-09-03T10:06:40;3.78;;;1.50;;
42662;SDS011;44330;51.360;6.686;2022-09-03T10:09:28;3.80;;;1.40;;
42662;SDS011;44330;51.360;6.686;2022-09-03T10:12:21;2.33;;;1.10;;
42662;SDS011;44330;51.360;6.686;2022-09-03T10:14:58;2.30;;;1.30;;
42662;SDS011;44330;51.360;6.686;2022-09-03T10:20:35;3.50;;;1.27;;
42662;SDS011;44330;51.360;6.686;2022-09-03T10:23:23;3.28;;;1.50;;
42662;SDS011;44330;51.360;6.686;2022-09-03T10:26:14;7.38;;;1.67;;
42662;SDS011;44330;51.360;6.686;2022-09-03T10:28:43;6.85;;;1.88;;
42662;SDS011;44330;51.360;6.686;2022-09-03T10:34:02;1.45;;;1.30;;
42662;SDS011;44330;51.360;6.686;2022-09-03T10:36:54;3.05;;;1.30;;
42662;SDS011;44330;51.360;6.686;2022-09-03T10:50:33;3.80;;;1.55;;
42662;SDS011;44330;51.360;6.686;2022-09-03T10:56:05;4.40;;;1.50;;
42662;SDS011;44330;51.360;6.686;2022-09-03T11:12:30;6.65;;;1.38;;
42662;SDS011;44330;51.360;6.686;2022-09-03T11:15:04;1.90;;;1.50;;
42662;SDS011;44330;51.360;6.686;2022-09-03T11:17:37;2.75;;;1.17;;
42662;SDS011;44330;51.360;6.686;2022-09-03T11:20:13;1.92;;;1.40;;
42662;SDS011;44330;51.360;6.686;2022-09-03T11:22:47;1.85;;;1.50;;
42662;SDS011;44330;51.360;6.686;2022-09-03T11:25:17;3.72;;;1.70;;
42662;SDS011;44330;51.360;6.686;2022-09-03T11:30:28;4.22;;;1.42;;
42662;SDS011;44330;51.360;6.686;2022-09-03T11:33:08;1.88;;;1.42;;
42662;SDS011;44330;51.360;6.686;2022-09-03T11:38:01;2.60;;;1.40;;
42662;SDS011;44330;51.360;6.686;2022-09-03T11:43:39;3.90;;;1.40;;
42662;SDS011;44330;51.360;6.686;2022-09-03T11:46:26;2.78;;;1.63;;
42662;SDS011;44330;51.360;6.686;2022-09-03T11:48:53;3.13;;;1.73;;
42662;SDS011;44330;51.360;6.686;2022-09-03T11:51:32;3.97;;;1.70;;
42662;SDS011;44330;51.360;6.686;2022-09-03T11:54:05;2.75;;;1.67;;
42662;SDS011;44330;51.360;6.686;2022-09-03T11:56:37;3.55;;;1.67;;
42662;SDS011;44330;51.360;6.686;2022-09-03T12:01:56;3.30;;;1.38;;
42662;SDS011;44330;51.360;6.686;2022-09-03T12:04:31;2.22;;;1.50;;
42662;SDS011;44330;51.360;6.686;2022-09-03T12:07:20;1.65;;;1.42;;
42662;SDS011;44330;51.360;6.686;2022-09-03T12:18:28;1.27;;;1.17;;
42662;SDS011;44330;51.360;6.686;2022-09-03T12:23:26;1.40;;;1.30;;
42662;SDS011;44330;51.360;6.686;2022-09-03T12:26:03;3.03;;;1.48;;
42662;SDS011;44330;51.360;6.686;2022-09-03T12:28:41;4.15;;;1.25;;
42662;SDS011;44330;51.360;6.686;2022-09-03T12:31:16;6.15;;;1.55;;
42662;SDS011;44330;51.360;6.686;2022-09-03T12:36:37;3.40;;;1.50;;
42662;SDS011;44330;51.360;6.686;2022-09-03T12:39:26;4.68;;;1.90;;
42662;SDS011;44330;51.360;6.686;2022-09-03T12:41:54;1.95;;;1.40;;
42662;SDS011;44330;51.360;6.686;2022-09-03T12:44:24;3.75;;;1.50;;
42662;SDS011;44330;51.360;6.686;2022-09-03T12:46:59;6.57;;;1.92;;
42662;SDS011;44330;51.360;6.686;2022-09-03T12:49:33;1.40;;;1.15;;
42662;SDS011;44330;51.360;6.686;2022-09-03T12:52:02;3.17;;;1.73;;
42662;SDS011;44330;51.360;6.686;2022-09-03T12:54:52;3.33;;;1.42;;
42662;SDS011;44330;51.360;6.686;2022-09-03T12:57:26;2.25;;;1.70;;
42662;SDS011;44330;51.360;6.686;2022-09-03T13:00:06;5.03;;;1.60;;
42662;SDS011;44330;51.360;6.686;2022-09-03T13:02:39;2.75;;;1.55;;
42662;SDS011;44330;51.360;6.686;2022-09-03T13:05:09;3.63;;;1.55;;
42662;SDS011;44330;51.360;6.686;2022-09-03T13:07:42;5.47;;;1.60;;
42662;SDS011;44330;51.360;6.686;2022-09-03T13:10:32;1.85;;;1.65;;
42662;SDS011;44330;51.360;6.686;2022-09-03T13:13:20;2.60;;;2.38;;
42662;SDS011;44330;51.360;6.686;2022-09-03T13:16:04;4.00;;;2.00;;
42662;SDS011;44330;51.360;6.686;2022-09-03T13:26:33;2.28;;;2.08;;
42662;SDS011;44330;51.360;6.686;2022-09-03T13:29:23;2.72;;;1.77;;
42662;SDS011;44330;51.360;6.686;2022-09-03T13:35:07;3.63;;;1.67;;
42662;SDS011;44330;51.360;6.686;2022-09-03T13:37:51;3.35;;;2.08;;
42662;SDS011;44330;51.360;6.686;2022-09-03T13:40:35;2.55;;;1.85;;
42662;SDS011;44330;51.360;6.686;2022-09-03T13:43:27;3.60;;;1.63;;
42662;SDS011;44330;51.360;6.686;2022-09-03T13:46:17;4.78;;;2.03;;
42662;SDS011;44330;51.360;6.686;2022-09-03T13:52:08;1.90;;;1.75;;
42662;SDS011;44330;51.360;6.686;2022-09-03T13:54:44;3.10;;;1.85;;
42662;SDS011;44330;51.360;6.686;2022-09-03T13:57:31;2.55;;;1.63;;
42662;SDS011;44330;51.360;6.686;2022-09-03T14:00:11;4.65;;;1.85;;
42662;SDS011;44330;51.360;6.686;2022-09-03T14:08:18;1.73;;;1.55;;
42662;SDS011;44330;51.360;6.686;2022-09-03T14:11:02;1.88;;;1.77;;
42662;SDS011;44330;51.360;6.686;2022-09-03T14:19:22;4.30;;;1.52;;
42662;SDS011;44330;51.360;6.686;2022-09-03T14:24:54;3.05;;;1.80;;
42662;SDS011;44330;51.360;6.686;2022-09-03T14:27:29;2.78;;;1.40;;
42662;SDS011;44330;51.360;6.686;2022-09-03T14:30:03;4.78;;;1.67;;
42662;SDS011;44330;51.360;6.686;2022-09-03T14:38:04;2.28;;;1.60;;
42662;SDS011;44330;51.360;6.686;2022-09-03T14:48:48;2.63;;;1.67;;
42662;SDS011;44330;51.360;6.686;2022-09-03T14:51:37;3.13;;;1.60;;
42662;SDS011;44330;51.360;6.686;2022-09-03T14:54:25;2.08;;;1.88;;
42662;SDS011;44330;51.360;6.686;2022-09-03T15:11:29;2.10;;;1.85;;
42662;SDS011;44330;51.360;6.686;2022-09-03T15:14:22;2.65;;;1.70;;
42662;SDS011;44330;51.360;6.686;2022-09-03T15:16:52;4.18;;;1.73;;
42662;SDS011;44330;51.360;6.686;2022-09-03T15:22:08;3.90;;;1.95;;
42662;SDS011;44330;51.360;6.686;2022-09-03T15:27:35;2.95;;;1.70;;
42662;SDS011;44330;51.360;6.686;2022-09-03T15:30:14;4.55;;;1.88;;
42662;SDS011;44330;51.360;6.686;2022-09-03T15:35:29;1.65;;;1.42;;
42662;SDS011;44330;51.360;6.686;2022-09-03T15:38:04;2.30;;;1.60;;
42662;SDS011;44330;51.360;6.686;2022-09-03T15:43:10;2.10;;;1.90;;
42662;SDS011;44330;51.360;6.686;2022-09-03T15:53:34;2.22;;;1.80;;
42662;SDS011;44330;51.360;6.686;2022-09-03T15:56:09;1.60;;;1.50;;
42662;SDS011;44330;51.360;6.686;2022-09-03T16:01:32;2.72;;;1.58;;
42662;SDS011;44330;51.360;6.686;2022-09-03T16:04:03;1.58;;;1.42;;
42662;SDS011;44330;51.360;6.686;2022-09-03T16:06:53;4.13;;;1.75;;
42662;SDS011;44330;51.360;6.686;2022-09-03T16:12:07;3.90;;;1.60;;
42662;SDS011;44330;51.360;6.686;2022-09-03T16:14:37;4.07;;;1.50;;
42662;SDS011;44330;51.360;6.686;2022-09-03T16:19:42;3.22;;;1.70;;
42662;SDS011;44330;51.360;6.686;2022-09-03T16:22:29;1.80;;;1.70;;
42662;SDS011;44330;51.360;6.686;2022-09-03T16:27:35;1.73;;;1.52;;
42662;SDS011;44330;51.360;6.686;2022-09-03T16:30:33;3.63;;;2.05;;
42662;SDS011;44330;51.360;6.686;2022-09-03T16:35:58;5.00;;;1.67;;
42662;SDS011;44330;51.360;6.686;2022-09-03T16:41:15;1.95;;;1.65;;
42662;SDS011;44330;51.360;6.686;2022-09-03T16:49:39;1.85;;;1.67;;
42662;SDS011;44330;51.360;6.686;2022-09-03T16:55:17;2.83;;;1.85;;
42662;SDS011;44330;51.360;6.686;2022-09-03T16:58:16;1.92;;;1.77;;
42662;SDS011;44330;51.360;6.686;2022-09-03T17:04:08;6.05;;;1.70;;
42662;SDS011;44330;51.360;6.686;2022-09-03T17:15:12;3.88;;;1.50;;
42662;SDS011;44330;51.360;6.686;2022-09-03T17:18:07;2.70;;;1.60;;
42662;SDS011;44330;51.360;6.686;2022-09-03T17:27:04;4.47;;;1.80;;
42662;SDS011;44330;51.360;6.686;2022-09-03T17:30:02;4.88;;;1.67;;
42662;SDS011;44330;51.360;6.686;2022-09-03T17:35:10;3.95;;;1.80;;
42662;SDS011;44330;51.360;6.686;2022-09-03T17:48:53;2.40;;;1.67;;
42662;SDS011;44330;51.360;6.686;2022-09-03T17:51:31;2.63;;;1.67;;
42662;SDS011;44330;51.360;6.686;2022-09-03T17:54:13;1.63;;;1.52;;
42662;SDS011;44330;51.360;6.686;2022-09-03T17:57:31;2.63;;;1.63;;
42662;SDS011;44330;51.360;6.686;2022-09-03T18:02:34;5.57;;;1.85;;
42662;SDS011;44330;51.360;6.686;2022-09-03T18:05:03;2.55;;;1.50;;
42662;SDS011;44330;51.360;6.686;2022-09-03T18:08:05;3.05;;;1.63;;
42662;SDS011;44330;51.360;6.686;2022-09-03T18:10:48;1.90;;;1.70;;
42662;SDS011;44330;51.360;6.686;2022-09-03T18:16:26;2.00;;;1.50;;
42662;SDS011;44330;51.360;6.686;2022-09-03T18:22:21;5.47;;;2.03;;
42662;SDS011;44330;51.360;6.686;2022-09-03T18:25:10;2.20;;;1.83;;
42662;SDS011;44330;51.360;6.686;2022-09-03T18:27:57;3.53;;;2.33;;
42662;SDS011;44330;51.360;6.686;2022-09-03T18:30:46;3.22;;;2.30;;
42662;SDS011;44330;51.360;6.686;2022-09-03T18:33:31;5.68;;;2.17;;
42662;SDS011;44330;51.360;6.686;2022-09-03T18:36:15;5.30;;;1.90;;
42662;SDS011;44330;51.360;6.686;2022-09-03T18:39:42;2.72;;;1.90;;
42662;SDS011;44330;51.360;6.686;2022-09-03T18:42:27;1.63;;;1.52;;
42662;SDS011;44330;51.360;6.686;2022-09-03T18:45:30;3.78;;;2.33;;
42662;SDS011;44330;51.360;6.686;2022-09-03T18:48:30;2.88;;;1.98;;
42662;SDS011;44330;51.360;6.686;2022-09-03T18:54:22;6.10;;;1.98;;
42662;SDS011;44330;51.360;6.686;2022-09-03T18:57:22;2.67;;;1.80;;
42662;SDS011;44330;51.360;6.686;2022-09-03T19:00:17;2.30;;;1.60;;
42662;SDS011;44330;51.360;6.686;2022-09-03T19:09:49;3.63;;;1.92;;
42662;SDS011;44330;51.360;6.686;2022-09-03T19:16:05;3.72;;;1.90;;
42662;SDS011;44330;51.360;6.686;2022-09-03T19:22:07;1.60;;;1.50;;
42662;SDS011;44330;51.360;6.686;2022-09-03T19:25:01;7.28;;;1.50;;
42662;SDS011;44330;51.360;6.686;2022-09-03T19:31:00;1.83;;;1.60;;
42662;SDS011;44330;51.360;6.686;2022-09-03T19:34:25;2.10;;;1.60;;
42662;SDS011;44330;51.360;6.686;2022-09-03T19:43:38;3.00;;;1.52;;
42662;SDS011;44330;51.360;6.686;2022-09-03T19:46:49;4.03;;;2.17;;
42662;SDS011;44330;51.360;6.686;2022-09-03T19:49:40;4.00;;;1.60;;
42662;SDS011;44330;51.360;6.686;2022-09-03T19:52:43;2.20;;;1.70;;
42662;SDS011;44330;51.360;6.686;2022-09-03T19:55:40;2.30;;;1.88;;
42662;SDS011;44330;51.360;6.686;2022-09-03T19:58:30;2.70;;;1.60;;
42662;SDS011;44330;51.360;6.686;2022-09-03T20:01:17;2.63;;;1.80;;
42662;SDS011;44330;51.360;6.686;2022-09-03T20:04:13;3.22;;;1.55;;
42662;SDS011;44330;51.360;6.686;2022-09-03T20:06:59;2.85;;;1.55;;
42662;SDS011;44330;51.360;6.686;2022-09-03T20:09:46;4.95;;;1.67;;
42662;SDS011;44330;51.360;6.686;2022-09-03T20:12:33;3.63;;;1.70;;
42662;SDS011;44330;51.360;6.686;2022-09-03T20:15:03;3.72;;;1.95;;
42662;SDS011;44330;51.360;6.686;2022-09-03T20:25:32;1.98;;;1.67;;
42662;SDS011;44330;51.360;6.686;2022-09-03T20:28:51;2.45;;;1.83;;
42662;SDS011;44330;51.360;6.686;2022-09-03T20:31:08;1.92;;;1.63;;
42662;SDS011;44330;51.360;6.686;2022-09-03T20:36:28;2.20;;;1.63;;